Buchans, Canada
Current Conditions -  °F | °C
As of 8:00 PM on Wednesday 17 Dec 2014 (Local Time) from CYDF Reporting Station
Overcast Overcast  
Wind Chill: 21°   Ceiling: 1900
Heat Index: 27°   Visibility: 15mi
Dew Point: 21°   Wind: 5mph
Humidity: 80%   Direction: 120°ESE
Pressure: 30.12"   Gusts: NA
Location:  48.82°N, 56.87°W
Report Text: CYDF 172300Z 12004KT 15SM OVC019 M03/M06 A3012 RMK SC8 SLP202
Loading
Personal Weather Stations






























Interactive Weather Map New forecast layout! Learn more

10-Day Weather Forecast

Advertisements
Track Severe Weather on mobile